Time;durP1;ratioP1;P1;durP2;ratioP2;P2;SDS_P1;SDS_P2;PMS_P1;PMS_P2;Temp;Humidity;BMP_temperature;BMP_pressure;BME280_temperature;BME280_humidity;BME280_pressure;Samples;Min_cycle;Max_cycle;Signal;HPM_P1;HPM_P2
2021/07/03 00:01:56;;;;;;;;;8.50;8.25;;;;;23.57;51.38;100930.44;5103299;27;45223;-56
2021/07/03 00:04:21;;;;;;;;;12.75;11.50;;;;;23.56;51.14;100937.63;5101145;27;45388;-55
2021/07/03 00:06:47;;;;;;;;;10.50;9.75;;;;;23.56;51.28;100948.38;5103019;27;46045;-55
2021/07/03 00:09:13;;;;;;;;;14.75;12.25;;;;;23.54;51.49;100952.97;5102931;27;45354;-56
2021/07/03 00:11:38;;;;;;;;;16.75;13.00;;;;;23.52;51.32;100942.34;5102834;27;45258;-55
2021/07/03 00:14:08;;;;;;;;;11.25;11.25;;;;;23.48;51.34;100945.31;5102768;27;45259;-54
2021/07/03 00:16:34;;;;;;;;;13.50;10.75;;;;;23.49;51.51;100950.56;5103009;27;45527;-55
2021/07/03 00:18:59;;;;;;;;;16.00;13.50;;;;;23.47;51.41;100952.50;5080555;28;45279;-55
2021/07/03 00:21:25;;;;;;;;;15.25;13.75;;;;;23.46;51.58;100952.59;5082299;28;45212;-53
2021/07/03 00:23:50;;;;;;;;;13.75;12.00;;;;;23.43;51.83;100959.00;5082203;27;45421;-55
2021/07/03 00:26:15;;;;;;;;;12.00;12.00;;;;;23.38;51.69;100950.41;5082350;28;45662;-55
2021/07/03 00:28:41;;;;;;;;;11.75;11.75;;;;;23.36;51.89;100949.66;5078732;28;45274;-55
2021/07/03 00:31:06;;;;;;;;;14.50;13.25;;;;;23.33;51.68;100948.06;5082360;27;45227;-55
2021/07/03 00:33:31;;;;;;;;;12.50;12.00;;;;;23.31;51.68;100941.91;5082035;28;45160;-55
2021/07/03 00:35:57;;;;;;;;;14.75;13.00;;;;;23.32;51.78;100953.50;5082115;28;46183;-54
2021/07/03 00:38:22;;;;;;;;;11.50;11.50;;;;;23.31;51.79;100943.75;5078881;28;45578;-55
2021/07/03 00:40:48;;;;;;;;;14.00;12.50;;;;;23.29;51.75;100941.13;5077519;28;45358;-55
2021/07/03 00:43:13;;;;;;;;;14.25;12.75;;;;;23.27;51.64;100944.88;5076033;28;45303;-53
2021/07/03 00:45:40;;;;;;;;;12.25;11.25;;;;;23.25;51.82;100941.47;5081903;27;45814;-54
2021/07/03 00:48:05;;;;;;;;;10.25;10.25;;;;;23.24;51.94;100945.09;5081533;28;45352;-54
2021/07/03 00:50:31;;;;;;;;;12.25;12.00;;;;;23.22;51.90;100939.84;5081943;28;45488;-55
2021/07/03 00:52:57;;;;;;;;;14.25;12.25;;;;;23.18;52.09;100938.28;5081791;28;45473;-55
2021/07/03 00:55:22;;;;;;;;;11.50;11.00;;;;;23.15;52.16;100933.13;5077032;28;45895;-55
2021/07/03 00:57:48;;;;;;;;;11.75;10.75;;;;;23.14;52.14;100932.22;5075518;28;45321;-54
2021/07/03 01:00:15;;;;;;;;;13.50;12.25;;;;;23.10;52.30;100928.03;5082004;28;45225;-54
2021/07/03 01:02:41;;;;;;;;;10.50;10.50;;;;;23.07;52.32;100927.38;5081042;28;45521;-54
2021/07/03 01:05:07;;;;;;;;;12.25;12.25;;;;;23.03;52.38;100922.22;5081787;28;45149;-54
2021/07/03 01:07:33;;;;;;;;;11.50;11.25;;;;;23.04;52.18;100920.38;5081653;28;45656;-53
2021/07/03 01:09:59;;;;;;;;;11.75;11.00;;;;;23.02;52.05;100922.31;5081446;28;46525;-54
2021/07/03 01:12:24;;;;;;;;;14.00;12.00;;;;;23.00;52.16;100927.75;5077552;28;45359;-55
2021/07/03 01:14:51;;;;;;;;;12.75;12.50;;;;;22.98;52.32;100932.38;5081605;28;45436;-54
2021/07/03 01:17:17;;;;;;;;;14.00;11.25;;;;;22.95;52.29;100919.16;5081804;27;45318;-54
2021/07/03 01:19:44;;;;;;;;;15.00;13.00;;;;;22.95;52.48;100927.19;5101660;27;45289;-55
2021/07/03 01:22:12;;;;;;;;;13.25;12.00;;;;;22.95;52.36;100923.66;5101791;27;45258;-55
2021/07/03 01:24:38;;;;;;;;;13.00;12.00;;;;;22.91;52.28;100909.59;5101763;27;46240;-55
2021/07/03 01:27:06;;;;;;;;;12.50;12.50;;;;;22.91;52.25;100919.47;5083265;27;45350;-53
2021/07/03 01:29:32;;;;;;;;;12.50;11.25;;;;;22.88;52.45;100912.50;5101803;27;45289;-54
2021/07/03 01:31:59;;;;;;;;;12.50;12.25;;;;;22.87;52.39;100908.94;5101429;27;45322;-55
2021/07/03 01:34:27;;;;;;;;;14.25;11.50;;;;;22.86;52.58;100906.34;5101300;27;45328;-55
2021/07/03 01:36:54;;;;;;;;;12.25;11.25;;;;;22.83;52.46;100899.38;5101425;27;45328;-55
2021/07/03 01:39:20;;;;;;;;;14.25;12.00;;;;;22.80;52.72;100906.75;5080040;28;45372;-55
2021/07/03 01:41:45;;;;;;;;;13.25;11.00;;;;;22.80;53.02;100907.59;5096815;27;45330;-54
2021/07/03 01:44:12;;;;;;;;;15.00;12.75;;;;;22.78;52.31;100904.16;5101349;27;46114;-55
2021/07/03 01:46:38;;;;;;;;;15.50;14.00;;;;;22.75;52.63;100898.13;5101349;27;45249;-54
2021/07/03 01:49:08;;;;;;;;;13.50;12.50;;;;;22.75;52.95;100903.50;5101189;27;45286;-54
2021/07/03 01:51:34;;;;;;;;;14.50;13.50;;;;;22.70;52.84;100893.06;5101080;27;45524;-55
2021/07/03 01:53:59;;;;;;;;;14.25;12.75;;;;;22.70;52.86;100891.25;5100944;27;46274;-55
2021/07/03 01:56:25;;;;;;;;;12.25;11.00;;;;;22.67;52.88;100891.44;5100849;27;45383;-54
2021/07/03 01:58:51;;;;;;;;;15.25;13.50;;;;;22.65;53.04;100892.50;5101116;27;45351;-55
2021/07/03 02:01:16;;;;;;;;;15.75;14.25;;;;;22.64;52.79;100891.66;5100798;27;45338;-53
2021/07/03 02:03:41;;;;;;;;;12.50;12.00;;;;;22.61;53.18;100885.63;5100242;27;45402;-54
2021/07/03 02:06:08;;;;;;;;;12.00;11.75;;;;;22.61;53.05;100885.63;5100999;27;46169;-54
2021/07/03 02:08:34;;;;;;;;;14.00;13.25;;;;;22.59;53.23;100885.72;5079292;28;45189;-52
2021/07/03 02:11:00;;;;;;;;;12.00;11.00;;;;;22.56;52.90;100877.88;5096600;27;45464;-54
2021/07/03 02:13:27;;;;;;;;;14.50;13.50;;;;;22.58;53.23;100888.47;5100617;27;46668;-54
2021/07/03 02:15:52;;;;;;;;;16.00;12.75;;;;;22.56;53.41;100885.91;5100520;27;45215;-55
2021/07/03 02:18:18;;;;;;;;;11.75;11.00;;;;;22.54;53.09;100883.31;5100526;27;45806;-54
2021/07/03 02:20:43;;;;;;;;;13.00;13.00;;;;;22.52;53.19;100887.91;5100496;27;45249;-55
2021/07/03 02:23:09;;;;;;;;;11.75;11.75;;;;;22.51;53.17;100886.19;5099858;27;46190;-55
2021/07/03 02:25:35;;;;;;;;;11.75;11.75;;;;;22.51;52.78;100888.00;5081687;27;45334;-55
2021/07/03 02:28:00;;;;;;;;;11.25;11.25;;;;;22.50;52.99;100879.13;5100582;27;45276;-54
2021/07/03 02:30:27;;;;;;;;;12.00;12.00;;;;;22.50;53.08;100889.84;5100006;27;45367;-55
2021/07/03 02:32:53;;;;;;;;;12.25;10.50;;;;;22.49;53.34;100889.91;5100121;27;46111;-56
2021/07/03 02:35:20;;;;;;;;;13.50;12.25;;;;;22.48;53.64;100890.88;5100286;27;45319;-55
2021/07/03 02:37:47;;;;;;;;;11.50;11.50;;;;;22.46;53.05;100888.28;5100408;27;45259;-55
2021/07/03 02:40:16;;;;;;;;;13.25;13.25;;;;;22.45;53.21;100886.59;5081925;27;45375;-55
2021/07/03 02:42:41;;;;;;;;;13.50;11.00;;;;;22.45;53.14;100883.03;5078349;28;47306;-54
2021/07/03 02:45:10;;;;;;;;;13.00;11.75;;;;;22.43;53.35;100872.41;5096687;27;45358;-54
2021/07/03 02:47:37;;;;;;;;;15.50;13.00;;;;;22.42;53.13;100878.72;5100093;27;45324;-55
2021/07/03 02:50:08;;;;;;;;;13.50;13.25;;;;;22.40;53.62;100872.59;5099842;27;45529;-55
2021/07/03 02:52:34;;;;;;;;;14.00;14.00;;;;;22.40;53.37;100876.16;5100052;27;46384;-55
2021/07/03 02:54:59;;;;;;;;;14.00;11.75;;;;;22.38;53.39;100878.06;5100087;27;45223;-55
2021/07/03 02:57:25;;;;;;;;;15.50;12.50;;;;;22.37;53.72;100873.66;5078584;28;45244;-54
2021/07/03 02:59:51;;;;;;;;;13.00;12.00;;;;;22.35;53.50;100872.88;5097767;27;45403;-54
2021/07/03 03:02:16;;;;;;;;;10.75;10.25;;;;;22.34;53.31;100878.28;5099993;27;45311;-55
2021/07/03 03:04:42;;;;;;;;;14.75;13.00;;;;;22.34;53.12;100880.97;5099186;27;45216;-53
2021/07/03 03:07:07;;;;;;;;;12.50;10.00;;;;;22.34;53.22;100872.94;5100385;27;45253;-55
2021/07/03 03:09:33;;;;;;;;;14.50;14.50;;;;;22.33;53.58;100865.88;5099995;27;45262;-54
2021/07/03 03:11:58;;;;;;;;;13.50;13.00;;;;;22.32;53.13;100869.53;5099402;27;45429;-55
2021/07/03 03:14:24;;;;;;;;;12.00;11.00;;;;;22.31;53.24;100874.00;5099753;27;45433;-54
2021/07/03 03:16:50;;;;;;;;;11.00;8.75;;;;;22.29;53.27;100870.56;5100151;27;45327;-56
2021/07/03 03:19:15;;;;;;;;;14.50;13.00;;;;;22.31;53.80;100873.13;5099330;27;45395;-56
2021/07/03 03:21:41;;;;;;;;;13.75;12.25;;;;;;;;5099711;27;46256;-56
2021/07/03 03:24:06;;;;;;;;;14.25;14.00;;;;;22.20;53.58;100861.28;5078026;28;45284;-56
2021/07/03 03:26:31;;;;;;;;;13.25;13.25;;;;;22.27;53.63;100872.47;5090077;27;45367;-56
2021/07/03 03:28:57;;;;;;;;;9.00;9.00;;;;;22.24;53.43;100868.16;5099578;27;45648;-57
2021/07/03 03:31:22;;;;;;;;;15.50;14.25;;;;;22.22;53.53;100867.38;5099672;27;45312;-57
2021/07/03 03:33:47;;;;;;;;;14.75;14.75;;;;;22.19;53.95;100859.56;5082678;27;45397;-56
2021/07/03 03:36:13;;;;;;;;;14.25;13.25;;;;;22.19;53.70;100861.38;5103435;27;45386;-56
2021/07/03 03:38:39;;;;;;;;;13.50;13.50;;;;;22.18;53.65;100871.22;5103187;27;45462;-56
2021/07/03 03:41:04;;;;;;;;;12.25;11.25;;;;;22.18;53.81;100873.88;5102982;27;46245;-56
2021/07/03 03:43:29;;;;;;;;;12.25;12.00;;;;;22.16;54.02;100872.25;5102838;27;45217;-56
2021/07/03 03:45:55;;;;;;;;;10.75;10.75;;;;;22.15;53.72;100866.06;5103249;27;45386;-56
2021/07/03 03:48:20;;;;;;;;;16.50;15.25;;;;;22.16;54.36;100872.25;5102678;27;45220;-56
2021/07/03 03:50:46;;;;;;;;;14.00;12.25;;;;;22.14;53.87;100869.69;5103009;27;45451;-57
2021/07/03 03:53:11;;;;;;;;;14.75;14.25;;;;;22.13;53.51;100867.97;5103180;27;45253;-55
2021/07/03 03:55:37;;;;;;;;;14.00;12.75;;;;;22.12;53.68;100860.03;5085024;27;45484;-56
2021/07/03 03:58:02;;;;;;;;;12.25;12.00;;;;;22.10;54.24;100862.81;5102970;27;45485;-56
2021/07/03 04:00:28;;;;;;;;;11.75;11.75;;;;;22.11;54.03;100860.97;5103217;27;45339;-57
2021/07/03 04:02:53;;;;;;;;;12.50;11.50;;;;;22.11;54.13;100867.19;5101259;27;45392;-55
2021/07/03 04:05:18;;;;;;;;;15.75;14.00;;;;;22.10;54.10;100872.63;5103415;27;45750;-57
2021/07/03 04:07:44;;;;;;;;;11.00;11.00;;;;;22.09;54.17;100874.47;5103066;27;45347;-57
2021/07/03 04:10:13;;;;;;;;;16.25;15.50;;;;;22.08;54.19;100883.44;5102882;27;45313;-56
2021/07/03 04:12:39;;;;;;;;;15.00;15.00;;;;;22.08;54.19;100884.28;5102819;27;45256;-56
2021/07/03 04:15:06;;;;;;;;;15.00;14.00;;;;;22.06;53.98;100894.25;5103065;27;45239;-58
2021/07/03 04:17:32;;;;;;;;;13.00;13.00;;;;;22.07;54.10;100893.28;5084013;27;45596;-56
2021/07/03 04:19:57;;;;;;;;;13.50;13.50;;;;;22.05;54.20;100889.00;5102684;27;46120;-56
2021/07/03 04:22:23;;;;;;;;;12.00;12.00;;;;;22.01;54.55;100893.66;5102850;27;45432;-57
2021/07/03 04:24:48;;;;;;;;;13.50;13.50;;;;;22.02;54.58;100889.16;5102969;27;45364;-56
2021/07/03 04:27:13;;;;;;;;;10.75;10.75;;;;;21.97;54.47;100897.44;5102529;27;45310;-57
2021/07/03 04:29:39;;;;;;;;;9.75;9.75;;;;;21.92;54.75;100886.16;5102480;27;45975;-57
2021/07/03 04:32:05;;;;;;;;;13.00;12.50;;;;;21.92;54.73;100894.19;5102479;27;45235;-57
2021/07/03 04:34:31;;;;;;;;;10.50;7.25;;;;;21.89;54.75;100905.09;5102613;27;45344;-56
2021/07/03 04:36:57;;;;;;;;;11.50;11.50;;;;;21.87;54.46;100901.63;5102554;27;45559;-57
2021/07/03 04:39:24;;;;;;;;;16.00;15.00;;;;;21.85;54.80;100903.56;5102784;27;46160;-57
2021/07/03 04:41:49;;;;;;;;;16.75;15.50;;;;;21.84;54.69;100907.19;5102132;27;45237;-57
2021/07/03 04:44:16;;;;;;;;;11.50;10.75;;;;;21.83;55.03;100903.63;5102303;27;45394;-57
2021/07/03 04:46:42;;;;;;;;;15.25;14.75;;;;;21.82;54.89;100909.06;5102048;27;45229;-56
2021/07/03 04:49:08;;;;;;;;;12.25;12.25;;;;;21.83;54.85;100916.16;5102132;27;45421;-56
2021/07/03 04:51:33;;;;;;;;;16.25;11.50;;;;;21.82;54.87;100909.06;5102176;27;45446;-56
2021/07/03 04:53:59;;;;;;;;;17.50;15.00;;;;;21.81;54.78;100902.00;5102312;27;45243;-55
2021/07/03 04:56:24;;;;;;;;;16.75;14.50;;;;;21.81;54.60;100902.00;5102211;27;45426;-55
2021/07/03 04:58:50;;;;;;;;;13.50;12.00;;;;;21.74;54.73;100891.66;5083446;27;47197;-56
2021/07/03 05:01:15;;;;;;;;;15.25;13.75;;;;;21.81;54.72;100896.63;5101978;27;45294;-55
2021/07/03 05:03:40;;;;;;;;;15.00;14.00;;;;;21.79;54.72;100903.91;5092104;27;45751;-56
2021/07/03 05:06:06;;;;;;;;;15.00;13.50;;;;;21.78;55.36;100900.34;5098445;27;45487;-55
2021/07/03 05:08:31;;;;;;;;;13.50;13.00;;;;;21.80;54.64;100902.94;5102074;27;45488;-55
2021/07/03 05:10:57;;;;;;;;;17.00;15.50;;;;;21.81;55.03;100907.34;5101739;27;45305;-54
2021/07/03 05:13:22;;;;;;;;;13.00;12.75;;;;;21.79;55.07;100902.09;5102064;27;45306;-55
2021/07/03 05:15:48;;;;;;;;;13.50;12.25;;;;;21.81;55.15;100896.63;5101815;27;45490;-55
2021/07/03 05:18:13;;;;;;;;;12.50;12.50;;;;;21.81;54.93;100897.53;5101587;27;45429;-55
2021/07/03 05:20:39;;;;;;;;;15.00;13.00;;;;;21.83;55.44;100894.75;5101568;27;45232;-55
2021/07/03 05:23:04;;;;;;;;;14.75;14.25;;;;;21.84;55.39;100894.66;5101972;27;45417;-55
2021/07/03 05:25:30;;;;;;;;;14.25;12.75;;;;;21.87;54.84;100890.94;5101701;27;45252;-55
2021/07/03 05:27:55;;;;;;;;;14.00;13.25;;;;;21.88;55.47;100887.31;5101536;27;45921;-56
2021/07/03 05:30:21;;;;;;;;;17.25;14.75;;;;;21.90;54.98;100886.25;5101303;27;45220;-55
2021/07/03 05:32:47;;;;;;;;;18.75;14.00;;;;;21.92;55.23;100883.50;5083185;27;45629;-55
2021/07/03 05:35:13;;;;;;;;;15.50;14.50;;;;;21.94;55.31;100881.59;5083117;27;45515;-55
2021/07/03 05:37:39;;;;;;;;;14.75;14.75;;;;;21.98;55.06;100875.09;5101661;27;45452;-55
2021/07/03 05:40:05;;;;;;;;;15.50;12.75;;;;;22.00;55.26;100869.66;5101212;27;45357;-56
2021/07/03 05:42:31;;;;;;;;;14.75;14.75;;;;;22.03;54.92;100864.13;5101426;27;45362;-56
2021/07/03 05:44:56;;;;;;;;;14.75;14.75;;;;;22.05;55.12;100864.91;5101173;27;45414;-57
2021/07/03 05:47:21;;;;;;;;;17.00;15.00;;;;;22.04;55.39;100872.06;5101009;27;45367;-57
2021/07/03 05:49:48;;;;;;;;;16.50;13.00;;;;;22.10;55.16;100870.84;5101321;27;45512;-57
2021/07/03 05:52:13;;;;;;;;;16.75;16.50;;;;;22.13;54.95;100881.34;5101427;27;45203;-57
2021/07/03 05:54:38;;;;;;;;;12.00;12.00;;;;;22.15;55.30;100879.44;5101297;27;45167;-58
2021/07/03 05:57:04;;;;;;;;;15.75;13.75;;;;;22.16;55.36;100875.81;5099987;27;45337;-56
2021/07/03 05:59:29;;;;;;;;;15.75;14.25;;;;;22.23;54.93;100884.31;5081432;27;45369;-58
2021/07/03 06:01:54;;;;;;;;;15.25;14.25;;;;;22.24;55.32;100876.19;5101224;27;45236;-57
2021/07/03 06:04:20;;;;;;;;;18.25;16.25;;;;;22.27;55.35;100885.84;5087199;27;45222;-58
2021/07/03 06:06:45;;;;;;;;;14.50;14.25;;;;;22.31;55.55;100881.16;5079406;28;46045;-57
2021/07/03 06:09:10;;;;;;;;;15.50;15.50;;;;;22.34;55.75;100876.50;5095847;27;45316;-57
2021/07/03 06:11:36;;;;;;;;;15.50;14.00;;;;;22.34;55.47;100879.16;5101024;27;45425;-58
2021/07/03 06:14:01;;;;;;;;;18.00;14.75;;;;;22.38;55.62;100872.69;5100867;27;45211;-57
2021/07/03 06:16:27;;;;;;;;;19.50;13.50;;;;;22.42;55.46;100883.22;5100990;27;46352;-58
2021/07/03 06:18:52;;;;;;;;;16.50;15.00;;;;;22.45;55.72;100888.38;5100563;27;45247;-57
2021/07/03 06:21:18;;;;;;;;;15.25;14.50;;;;;22.44;55.82;100892.88;5101024;27;45192;-57
2021/07/03 06:23:43;;;;;;;;;16.75;16.50;;;;;22.50;56.34;100897.00;5100932;27;45342;-57
2021/07/03 06:26:09;;;;;;;;;17.25;16.00;;;;;22.50;56.33;100897.88;5100831;27;45319;-57
2021/07/03 06:28:34;;;;;;;;;19.50;16.00;;;;;22.49;56.15;100893.47;5100574;27;45409;-57
2021/07/03 06:30:59;;;;;;;;;19.25;16.25;;;;;22.50;56.19;100897.00;5100812;27;45359;-58
2021/07/03 06:33:25;;;;;;;;;16.75;14.25;;;;;22.49;56.17;100906.84;5100659;27;45350;-58
2021/07/03 06:35:51;;;;;;;;;18.25;17.50;;;;;22.48;56.19;100910.47;5079121;28;46610;-57
2021/07/03 06:38:17;;;;;;;;;18.75;16.50;;;;;22.51;56.39;100902.25;5094166;27;45328;-57
2021/07/03 06:40:42;;;;;;;;;14.75;14.75;;;;;22.53;56.33;100896.81;5100846;27;45976;-58
2021/07/03 06:43:08;;;;;;;;;14.25;14.25;;;;;22.56;56.25;100896.59;5100576;27;45224;-57
2021/07/03 06:45:33;;;;;;;;;18.00;17.75;;;;;22.61;56.38;100902.53;5100412;27;46071;-58
2021/07/03 06:47:58;;;;;;;;;15.25;15.25;;;;;22.65;56.29;100897.84;5100258;27;45178;-57
2021/07/03 06:50:24;;;;;;;;;19.00;17.50;;;;;22.69;56.22;100907.41;5100414;27;45291;-58
2021/07/03 06:52:49;;;;;;;;;14.75;14.50;;;;;22.71;56.22;100898.31;5100469;27;45239;-58
2021/07/03 06:55:15;;;;;;;;;21.75;19.25;;;;;22.78;56.42;100906.84;5100219;27;45216;-58
2021/07/03 06:57:41;;;;;;;;;19.00;16.75;;;;;22.82;56.23;100911.03;5100493;27;45186;-58
2021/07/03 07:00:07;;;;;;;;;76.00;64.75;;;;;22.86;56.35;100911.72;5100350;27;45172;-58
2021/07/03 07:02:33;;;;;;;;;16.25;14.75;;;;;22.89;56.15;100920.44;5099747;27;45320;-58
2021/07/03 07:04:58;;;;;;;;;45.50;38.25;;;;;22.97;56.44;100924.44;5099614;27;45264;-58
2021/07/03 07:07:24;;;;;;;;;16.75;16.75;;;;;23.00;56.49;100925.09;5078601;28;45437;-58
2021/07/03 07:09:49;;;;;;;;;20.00;17.25;;;;;23.05;56.43;100916.75;5081614;28;45535;-58
2021/07/03 07:12:16;;;;;;;;;18.50;18.00;;;;;23.11;56.30;100918.19;5096557;27;45327;-58
2021/07/03 07:14:42;;;;;;;;;16.25;14.25;;;;;23.15;56.23;100922.41;5085254;27;45337;-57
2021/07/03 07:17:09;;;;;;;;;21.50;19.75;;;;;23.20;56.39;100914.94;5085205;27;45350;-58
2021/07/03 07:19:34;;;;;;;;;18.25;18.25;;;;;23.22;56.33;100923.75;5103685;27;45274;-57
2021/07/03 07:22:00;;;;;;;;;21.00;17.50;;;;;23.26;56.25;100922.59;5103617;27;45192;-58
2021/07/03 07:24:25;;;;;;;;;18.00;15.75;;;;;23.32;56.47;100922.19;5103458;27;45960;-58
2021/07/03 07:26:51;;;;;;;;;19.75;18.50;;;;;23.35;56.24;100930.03;5103657;27;45315;-58
2021/07/03 07:29:16;;;;;;;;;16.25;15.75;;;;;23.39;56.07;100924.47;5103616;27;45180;-58
2021/07/03 07:31:41;;;;;;;;;20.50;18.75;;;;;23.43;56.40;100931.34;5103567;27;45434;-58
2021/07/03 07:34:07;;;;;;;;;18.00;17.25;;;;;23.46;56.29;100936.50;5103095;27;45274;-58
2021/07/03 07:36:32;;;;;;;;;13.00;12.75;;;;;23.49;56.27;100934.47;5103540;27;45224;-56
2021/07/03 07:38:58;;;;;;;;;15.50;15.50;;;;;23.54;56.07;100939.56;5103515;27;45355;-58
2021/07/03 07:41:23;;;;;;;;;17.00;16.50;;;;;23.58;56.25;100937.53;5103389;27;45314;-57
2021/07/03 07:43:49;;;;;;;;;16.75;15.50;;;;;23.61;56.32;100948.03;5081308;28;46036;-57
2021/07/03 07:46:14;;;;;;;;;15.25;15.25;;;;;23.65;56.26;100946.91;5094612;27;45254;-58
2021/07/03 07:48:41;;;;;;;;;18.00;15.25;;;;;23.68;55.82;100947.56;5103202;27;45409;-58
2021/07/03 07:51:07;;;;;;;;;18.00;15.00;;;;;23.72;55.96;100947.34;5103222;27;45450;-58
2021/07/03 07:53:32;;;;;;;;;17.25;15.75;;;;;23.78;56.13;100957.66;5102916;27;45344;-57
2021/07/03 07:55:58;;;;;;;;;16.50;15.50;;;;;23.78;56.09;100949.63;5103181;27;45327;-57
2021/07/03 07:58:25;;;;;;;;;16.75;15.25;;;;;23.85;56.16;100964.34;5103073;27;45308;-57
2021/07/03 08:00:51;;;;;;;;;20.25;17.50;;;;;23.87;56.22;100957.03;5103045;27;45615;-57
2021/07/03 08:03:17;;;;;;;;;18.00;16.25;;;;;23.90;56.12;100945.25;5101147;27;46097;-58
2021/07/03 08:05:43;;;;;;;;;22.00;19.50;;;;;23.94;56.64;100946.81;5102964;27;45295;-57
2021/07/03 08:08:09;;;;;;;;;21.50;18.50;;;;;23.93;56.33;100940.56;5103010;27;45541;-58
2021/07/03 08:10:36;;;;;;;;;20.75;16.50;;;;;23.96;55.97;100936.81;5102762;27;45572;-57
2021/07/03 08:13:02;;;;;;;;;20.75;18.00;;;;;23.99;56.02;100940.16;5102575;27;46136;-57
2021/07/03 08:15:28;;;;;;;;;15.50;15.50;;;;;24.01;56.22;100932.88;5102714;27;46267;-57
2021/07/03 08:17:53;;;;;;;;;15.50;15.00;;;;;24.06;55.92;100939.75;5080599;28;45305;-57
2021/07/03 08:20:21;;;;;;;;;16.25;14.00;;;;;24.07;55.90;100955.72;5093115;27;45402;-56
2021/07/03 08:22:49;;;;;;;;;12.00;11.50;;;;;24.09;55.83;100961.03;5102505;27;46324;-57
2021/07/03 08:25:17;;;;;;;;;12.25;12.25;;;;;24.06;55.74;100955.84;5102660;27;45318;-56
2021/07/03 08:27:43;;;;;;;;;13.00;13.00;;;;;24.02;55.65;100942.66;5080772;28;45349;-56
2021/07/03 08:30:09;;;;;;;;;11.75;11.75;;;;;24.02;55.43;100950.69;5095652;27;45251;-56
2021/07/03 08:32:34;;;;;;;;;9.75;9.50;;;;;23.99;55.40;100956.25;5088761;27;45213;-56
2021/07/03 08:35:00;;;;;;;;;12.25;11.75;;;;;23.99;55.14;100947.34;5102726;27;45456;-55
2021/07/03 08:37:25;;;;;;;;;15.50;11.75;;;;;23.93;55.21;100937.88;5102687;27;45230;-55
2021/07/03 08:39:51;;;;;;;;;12.00;10.50;;;;;23.94;55.23;100950.34;5102538;27;45248;-56
2021/07/03 08:42:16;;;;;;;;;13.75;10.75;;;;;23.91;54.87;100950.56;5102282;27;45922;-56
2021/07/03 08:44:46;;;;;;;;;11.25;10.50;;;;;23.85;54.94;100940.22;5084324;27;45231;-57
2021/07/03 08:47:12;;;;;;;;;10.00;9.25;;;;;23.85;54.68;100953.63;5084062;27;45382;-57
2021/07/03 08:49:37;;;;;;;;;15.00;13.00;;;;;23.83;54.90;100956.38;5102247;27;45317;-56
2021/07/03 08:52:03;;;;;;;;;11.00;11.00;;;;;23.82;54.77;100956.50;5102269;27;46214;-56
2021/07/03 08:54:28;;;;;;;;;11.50;11.00;;;;;23.81;54.38;100952.09;5102297;27;45246;-57
2021/07/03 08:56:54;;;;;;;;;11.50;10.00;;;;;23.81;54.54;100957.44;5080489;28;45341;-57
2021/07/03 08:59:20;;;;;;;;;11.50;11.50;;;;;23.81;54.50;100963.69;5095276;27;45224;-57
2021/07/03 09:01:58;;;;;;;;;12.00;12.00;;;;;23.81;54.61;100960.13;5102063;27;46237;-56
2021/07/03 09:04:37;;;;;;;;;10.75;9.75;;;;;23.82;54.64;100959.19;5101043;27;45445;-55
2021/07/03 09:07:13;;;;;;;;;8.25;8.00;;;;;23.80;54.44;100953.06;5102141;27;45337;-54
2021/07/03 09:09:39;;;;;;;;;12.25;12.25;;;;;23.77;54.72;100954.13;5080118;28;45315;-54
2021/07/03 09:12:04;;;;;;;;;12.75;12.50;;;;;23.80;54.50;100958.44;5092962;27;45241;-54
2021/07/03 09:14:30;;;;;;;;;11.75;11.50;;;;;23.77;54.74;100958.63;5101869;27;45229;-55
2021/07/03 09:16:59;;;;;;;;;13.00;12.00;;;;;23.79;54.48;100972.81;5080306;28;45256;-54
2021/07/03 09:19:29;;;;;;;;;11.00;11.00;;;;;23.79;54.51;100962.94;5100227;27;45504;-54
2021/07/03 09:21:55;;;;;;;;;14.25;13.25;;;;;23.82;54.41;100959.19;5101543;27;45247;-53
2021/07/03 09:24:21;;;;;;;;;14.00;11.00;;;;;23.84;54.65;100951.91;5101468;27;45421;-54
2021/07/03 09:27:00;;;;;;;;;10.75;9.75;;;;;23.82;54.92;100960.06;5101794;27;45374;-56
2021/07/03 09:29:25;;;;;;;;;10.25;10.25;;;;;23.81;54.81;100955.66;5083385;27;45316;-56
2021/07/03 09:31:51;;;;;;;;;16.75;15.00;;;;;23.83;54.92;100963.59;5101026;27;46078;-56
2021/07/03 09:34:16;;;;;;;;;10.50;10.00;;;;;23.86;54.71;100963.38;5101531;27;45304;-56
2021/07/03 09:36:41;;;;;;;;;12.00;10.25;;;;;23.86;54.60;100961.56;5101676;27;45483;-57
2021/07/03 09:39:07;;;;;;;;;13.50;12.75;;;;;23.86;54.32;100963.38;5101725;27;45377;-56
2021/07/03 09:41:35;;;;;;;;;12.50;11.50;;;;;23.88;54.63;100961.44;5101460;27;45951;-56
2021/07/03 09:44:10;;;;;;;;;14.00;14.00;;;;;23.89;54.40;100970.38;5101524;27;45246;-56
2021/07/03 09:46:40;;;;;;;;;12.00;12.00;;;;;23.88;54.88;100968.66;5101494;27;45292;-56
2021/07/03 09:49:11;;;;;;;;;15.50;13.00;;;;;23.86;54.63;100977.66;5101134;27;45341;-57
2021/07/03 09:51:38;;;;;;;;;11.25;10.25;;;;;23.85;54.65;100975.09;5101101;27;46340;-57
2021/07/03 09:54:05;;;;;;;;;12.00;11.75;;;;;23.86;54.64;100974.97;5101627;27;45575;-57
2021/07/03 09:56:31;;;;;;;;;16.50;13.50;;;;;23.88;54.55;100982.06;5082869;27;45407;-57
2021/07/03 09:58:57;;;;;;;;;9.75;8.50;;;;;23.86;54.65;100996.44;5101084;27;45267;-57
2021/07/03 10:01:22;;;;;;;;;13.75;10.75;;;;;23.87;54.56;100994.59;5101070;27;47208;-57
2021/07/03 10:03:48;;;;;;;;;13.00;11.00;;;;;23.88;54.72;101001.69;5100156;27;45391;-57
2021/07/03 10:06:31;;;;;;;;;12.00;10.00;;;;;23.89;54.51;100997.22;5082800;27;45298;-57
2021/07/03 10:09:01;;;;;;;;;12.00;11.25;;;;;23.86;54.32;100998.25;5101047;27;45416;-57
2021/07/03 10:11:29;;;;;;;;;10.25;10.25;;;;;23.85;54.35;100997.41;5100730;27;45247;-56
2021/07/03 10:14:02;;;;;;;;;14.75;14.00;;;;;23.87;54.27;100999.97;5100912;27;45397;-58
2021/07/03 10:16:28;;;;;;;;;10.00;10.00;;;;;23.86;54.74;100992.88;5100948;27;45233;-57
2021/07/03 10:19:09;;;;;;;;;14.00;11.50;;;;;23.90;54.58;100981.00;5100502;27;45536;-58
2021/07/03 10:21:35;;;;;;;;;12.25;12.25;;;;;23.93;54.55;100986.19;5100698;27;46373;-57
2021/07/03 10:24:01;;;;;;;;;13.75;12.25;;;;;23.99;54.59;100979.56;5100632;27;45327;-58
2021/07/03 10:26:39;;;;;;;;;13.50;13.50;;;;;24.00;54.37;100987.50;5101128;27;45259;-58
2021/07/03 10:29:19;;;;;;;;;16.75;14.75;;;;;24.00;54.68;100979.44;5100568;27;45434;-58
2021/07/03 10:31:46;;;;;;;;;14.00;13.75;;;;;24.01;54.45;100974.94;5100408;27;47011;-57
2021/07/03 10:34:12;;;;;;;;;16.50;15.00;;;;;24.02;55.06;100969.47;5100660;27;45232;-57
2021/07/03 10:36:42;;;;;;;;;13.75;13.75;;;;;23.99;54.45;100961.63;5100751;27;45426;-57
2021/07/03 10:39:08;;;;;;;;;11.00;11.00;;;;;24.08;54.60;100978.09;5100806;27;45345;-57
2021/07/03 10:41:36;;;;;;;;;12.50;12.00;;;;;24.12;54.74;100982.28;5100361;27;45482;-57
2021/07/03 10:44:12;;;;;;;;;13.00;13.00;;;;;24.15;54.59;100987.41;5077978;28;45372;-57
2021/07/03 10:46:40;;;;;;;;;13.50;10.50;;;;;24.20;54.17;100989.78;5096346;27;45243;-56
2021/07/03 10:49:09;;;;;;;;;10.00;10.00;;;;;24.22;54.29;100988.72;5100276;27;45389;-57
2021/07/03 10:51:39;;;;;;;;;14.75;12.00;;;;;24.27;54.27;100983.06;5100242;27;46384;-56
2021/07/03 10:54:11;;;;;;;;;11.25;10.75;;;;;24.33;54.29;100988.00;5100596;27;45381;-56
2021/07/03 10:56:45;;;;;;;;;11.75;10.50;;;;;24.33;54.15;100983.47;5100490;27;45306;-57
2021/07/03 10:59:12;;;;;;;;;14.00;11.50;;;;;24.38;53.81;100987.66;5100349;27;45387;-56
2021/07/03 11:01:38;;;;;;;;;9.00;7.25;;;;;24.34;53.89;100976.31;5100330;27;46016;-56
2021/07/03 11:04:23;;;;;;;;;13.75;12.75;;;;;24.40;54.09;100983.06;5087016;27;45371;-56
2021/07/03 11:06:53;;;;;;;;;14.00;11.00;;;;;24.43;54.41;100986.41;5088999;27;45387;-57